Lavender Ace — 3FFS3 — position and weather

sailwx.info

Track history (hours):
 
Tides and Currents Weather Stations Pressure Air Temp Water Temp Dewpoint Dewpoint Depression Visibility Wind Speed Wind Dir Waves Ship Positions

Lavender Ace

Last reported at 2017-Nov-05 08:52 UTC. Time now 2017-Nov-18 01:18 UTC.
Position N 38°23' W 124°17'.
Warning: this ship's position is 12 days out of date.

Length 200 m; draft 9.3 m.

Type: Cargo ship. MMSI: 353332000.

Date/timePositionNaut miles runAvg speedWind from/ knotsBaromVisibWave heightAir tempDewpointWater temp
2017-Nov-05 08:52N 38°23' W 124°17'718.2
2017-Nov-05 08:28N 38°21' W 124°08'818.2
2017-Nov-05 08:00N 38°19' W 123°58'918.4
2017-Nov-05 07:30N 38°16' W 123°47'918.4
2017-Nov-05 07:00N 38°13' W 123°36'918.0
2017-Nov-05 06:30N 38°10' W 123°25'917.5
2017-Nov-05 06:00N 38°05' W 123°15'918.1
2017-Nov-05 05:30N 37°58' W 123°08'918.5
2017-Nov-05 05:00N 37°54' W 122°58'917.9
2017-Nov-05 04:30N 37°49' W 122°48'612.7
2017-Nov-05 04:00N 37°46' W 122°41'611.6
2017-Nov-05 03:30N 37°47' W 122°34'713.6
2017-Nov-05 03:00N 37°51' W 122°26'611.4
2017-Nov-05 02:31N 37°46' W 122°22'1 1.8
2017-Nov-05 02:01N 37°45' W 122°23'0 0.0
2017-Nov-05 01:28N 37°45' W 122°23'0 0.0
2017-Nov-05 00:58N 37°45' W 122°23'0 0.0
2017-Nov-05 00:28N 37°45' W 122°23'0 0.0
2017-Nov-04 23:58N 37°45' W 122°23'0 0.0
2017-Nov-04 23:28N 37°45' W 122°23'0 0.0
2017-Nov-04 22:58N 37°45' W 122°23'0 0.0
2017-Nov-04 22:28N 37°45' W 122°23'0 0.0
2017-Nov-04 21:58N 37°45' W 122°23'0 0.0
2017-Nov-04 21:28N 37°45' W 122°23'0 0.0
2017-Nov-04 20:58N 37°45' W 122°23'0 0.0
2017-Nov-04 20:28N 37°45' W 122°23'0 0.0
2017-Nov-04 19:58N 37°45' W 122°23'0 0.0
2017-Nov-04 19:28N 37°45' W 122°23'0 0.0
2017-Nov-04 18:58N 37°45' W 122°23'0 0.0
2017-Nov-04 18:28N 37°45' W 122°23'0 0.0
2017-Nov-04 17:58N 37°45' W 122°23'0 0.0
2017-Nov-04 17:28N 37°45' W 122°23'0 0.0
2017-Nov-04 16:58N 37°45' W 122°23'0 0.0
2017-Nov-04 16:28N 37°45' W 122°23'0 0.0
2017-Nov-04 15:58N 37°45' W 122°23'0 0.0
2017-Nov-04 15:28N 37°45' W 122°23'0 0.0
2017-Nov-04 14:58N 37°45' W 122°23'0 0.0
2017-Nov-04 14:28N 37°45' W 122°23'0 0.0
2017-Nov-04 13:58N 37°45' W 122°23'0 0.0
2017-Nov-04 13:28N 37°45' W 122°23'0 0.0
2017-Nov-04 12:58N 37°45' W 122°23'0 0.0
2017-Nov-04 12:28N 37°45' W 122°23'0 0.0
2017-Nov-04 11:58N 37°45' W 122°23'0 0.0
2017-Nov-04 11:28N 37°45' W 122°23'0 0.0
2017-Nov-04 10:58N 37°45' W 122°23'0 0.0
2017-Nov-04 10:28N 37°45' W 122°23'0 0.0
2017-Nov-04 10:01N 37°45' W 122°23'1 2.1
2017-Nov-04 09:30N 37°46' W 122°22'4 7.9
2017-Nov-04 09:00N 37°49' W 122°26'612.6
2017-Nov-04 08:30N 37°47' W 122°33'612.8
2017-Nov-04 08:00N 37°44' W 122°40'4 7.1
2017-Nov-04 07:31N 37°41' W 122°40'4 7.9
2017-Nov-04 07:01N 37°37' W 122°40'4 7.6
2017-Nov-04 06:30N 37°33' W 122°40'4 8.1
2017-Nov-04 06:00N 37°29' W 122°40'4 8.1
2017-Nov-04 05:31N 37°25' W 122°40'4 7.8
2017-Nov-04 05:01N 37°21' W 122°40'4 7.8
2017-Nov-04 04:31N 37°17' W 122°40'4 7.9
2017-Nov-04 04:01N 37°13' W 122°40'4 7.4
2017-Nov-04 03:30N 37°09' W 122°39'4 8.1
2017-Nov-04 03:01N 37°06' W 122°37'5 9.4
2017-Nov-04 02:31N 37°01' W 122°35'5 9.2
2017-Nov-04 02:00N 36°57' W 122°33'4513.1
2017-Nov-03 22:33N 36°15' W 122°11'117.9
2017-Nov-03 22:30N 36°15' W 122°10'918.0
2017-Nov-03 22:00N 36°07' W 122°05'2917.9
2017-Nov-03 20:24N 35°42' W 121°47'717.9
2017-Nov-03 20:00N 35°36' W 121°42'1218.0
2017-Nov-03 19:20N 35°26' W 121°34'618.3
2017-Nov-03 19:00N 35°21' W 121°31'918.1
2017-Nov-03 18:30N 35°13' W 121°25'918.7
2017-Nov-03 18:00N 35°05' W 121°19'918.0
2017-Nov-03 17:30N 34°57' W 121°14'917.9
2017-Nov-03 17:00N 34°49' W 121°08'918.0
2017-Nov-03 16:30N 34°42' W 121°03'917.8
2017-Nov-03 16:00N 34°34' W 120°57'917.6
2017-Nov-03 15:30N 34°26' W 120°52'918.4
2017-Nov-03 15:00N 34°24' W 120°41'917.5
2017-Nov-03 14:29N 34°21' W 120°30'511.0
2017-Nov-03 14:00N 34°20' W 120°24'5 9.3
2017-Nov-03 13:30N 34°19' W 120°19'5 9.2
2017-Nov-03 13:00N 34°18' W 120°13'5 9.2
2017-Nov-03 12:28N 34°16' W 120°08'4 9.1
2017-Nov-03 12:00N 34°15' W 120°03'5 9.1
2017-Nov-03 11:28N 34°14' W 119°57'4 9.5
2017-Nov-03 11:00N 34°13' W 119°52'5 9.2
2017-Nov-03 10:27N 34°11' W 119°46'510.0
2017-Nov-03 09:59N 34°10' W 119°40'4 9.3
2017-Nov-03 09:30N 34°09' W 119°35'5 9.2
2017-Nov-03 08:57N 34°07' W 119°29'4 8.9
2017-Nov-03 08:28N 34°06' W 119°24'4 8.7
2017-Nov-03 08:00N 34°05' W 119°20'5 9.0
2017-Nov-03 07:28N 34°04' W 119°14'4 9.1
2017-Nov-03 07:00N 34°02' W 119°09'5 8.9
2017-Nov-03 06:28N 33°60' W 119°05'4 8.7
2017-Nov-03 06:00N 33°57' W 119°00'5 9.2
2017-Nov-03 05:30N 33°55' W 118°56'4 8.7
2017-Nov-03 05:00N 33°53' W 118°51'510.0
2017-Nov-03 04:30N 33°50' W 118°46'611.5
2017-Nov-03 04:00N 33°48' W 118°40'611.7
2017-Nov-03 03:30N 33°44' W 118°34'611.7
2017-Nov-03 03:01N 33°42' W 118°28'611.5
2017-Nov-03 02:29N 33°39' W 118°21'811.2
2017-Nov-03 01:47N 33°39' W 118°12'6 0.5
2017-Nov-02 12:41N 33°45' W 118°13'6 7.4
2017-Nov-02 11:51N 33°39' W 118°10'22 6.4
2017-Nov-02 08:29N 33°18' W 118°02'4 7.3
2017-Nov-02 08:00N 33°15' W 118°01'4 7.1
2017-Nov-02 07:31N 33°12' W 117°60'4 7.2
2017-Nov-02 07:00N 33°08' W 117°58'4 7.3
2017-Nov-02 06:31N 33°05' W 117°57'4 7.3
2017-Nov-02 06:01N 33°01' W 117°56'4 7.3
2017-Nov-02 05:30N 32°58' W 117°55'4 7.2
2017-Nov-02 05:00N 32°54' W 117°54'4 7.3
2017-Nov-02 04:30N 32°51' W 117°52'4 7.4
2017-Nov-02 04:01N 32°47' W 117°51'4 7.3
2017-Nov-02 03:31N 32°44' W 117°50'4 7.7
2017-Nov-02 03:01N 32°40' W 117°48'4 8.0
2017-Nov-02 02:30N 32°36' W 117°47'4 7.9
2017-Nov-02 01:57N 32°32' W 117°45'4 7.8
2017-Nov-02 01:30N 32°29' W 117°44'4 7.7
2017-Nov-02 01:00N 32°25' W 117°42'4 8.7
2017-Nov-02 00:30N 32°21' W 117°40'  
Track history (hours):
 
Tides and Currents Weather Stations Pressure Air Temp Water Temp Dewpoint Dewpoint Depression Visibility Wind Speed Wind Dir Waves Ship Positions

Lavender Ace

Last reported at 2017-Nov-05 08:52 UTC. Time now 2017-Nov-18 01:18 UTC.
Position N 38°23' W 124°17'.
Warning: this ship's position is 12 days out of date.

Length 200 m; draft 9.3 m.

Type: Cargo ship. MMSI: 353332000.

Date/timePositionNaut miles runAvg speedWind from/ knotsBaromVisibWave heightAir tempDewpointWater temp
2017-Nov-05 08:52N 38°23' W 124°17'718.2
2017-Nov-05 08:28N 38°21' W 124°08'818.2
2017-Nov-05 08:00N 38°19' W 123°58'918.4
2017-Nov-05 07:30N 38°16' W 123°47'918.4
2017-Nov-05 07:00N 38°13' W 123°36'918.0
2017-Nov-05 06:30N 38°10' W 123°25'917.5
2017-Nov-05 06:00N 38°05' W 123°15'918.1
2017-Nov-05 05:30N 37°58' W 123°08'918.5
2017-Nov-05 05:00N 37°54' W 122°58'917.9
2017-Nov-05 04:30N 37°49' W 122°48'612.7
2017-Nov-05 04:00N 37°46' W 122°41'611.6
2017-Nov-05 03:30N 37°47' W 122°34'713.6
2017-Nov-05 03:00N 37°51' W 122°26'611.4
2017-Nov-05 02:31N 37°46' W 122°22'1 1.8
2017-Nov-05 02:01N 37°45' W 122°23'0 0.0
2017-Nov-05 01:28N 37°45' W 122°23'0 0.0
2017-Nov-05 00:58N 37°45' W 122°23'0 0.0
2017-Nov-05 00:28N 37°45' W 122°23'0 0.0
2017-Nov-04 23:58N 37°45' W 122°23'0 0.0
2017-Nov-04 23:28N 37°45' W 122°23'0 0.0
2017-Nov-04 22:58N 37°45' W 122°23'0 0.0
2017-Nov-04 22:28N 37°45' W 122°23'0 0.0
2017-Nov-04 21:58N 37°45' W 122°23'0 0.0
2017-Nov-04 21:28N 37°45' W 122°23'0 0.0
2017-Nov-04 20:58N 37°45' W 122°23'0 0.0
2017-Nov-04 20:28N 37°45' W 122°23'0 0.0
2017-Nov-04 19:58N 37°45' W 122°23'0 0.0
2017-Nov-04 19:28N 37°45' W 122°23'0 0.0
2017-Nov-04 18:58N 37°45' W 122°23'0 0.0
2017-Nov-04 18:28N 37°45' W 122°23'0 0.0
2017-Nov-04 17:58N 37°45' W 122°23'0 0.0
2017-Nov-04 17:28N 37°45' W 122°23'0 0.0
2017-Nov-04 16:58N 37°45' W 122°23'0 0.0
2017-Nov-04 16:28N 37°45' W 122°23'0 0.0
2017-Nov-04 15:58N 37°45' W 122°23'0 0.0
2017-Nov-04 15:28N 37°45' W 122°23'0 0.0
2017-Nov-04 14:58N 37°45' W 122°23'0 0.0
2017-Nov-04 14:28N 37°45' W 122°23'0 0.0
2017-Nov-04 13:58N 37°45' W 122°23'0 0.0
2017-Nov-04 13:28N 37°45' W 122°23'0 0.0
2017-Nov-04 12:58N 37°45' W 122°23'0 0.0
2017-Nov-04 12:28N 37°45' W 122°23'0 0.0
2017-Nov-04 11:58N 37°45' W 122°23'0 0.0
2017-Nov-04 11:28N 37°45' W 122°23'0 0.0
2017-Nov-04 10:58N 37°45' W 122°23'0 0.0
2017-Nov-04 10:28N 37°45' W 122°23'0 0.0
2017-Nov-04 10:01N 37°45' W 122°23'1 2.1
2017-Nov-04 09:30N 37°46' W 122°22'4 7.9
2017-Nov-04 09:00N 37°49' W 122°26'612.6
2017-Nov-04 08:30N 37°47' W 122°33'612.8
2017-Nov-04 08:00N 37°44' W 122°40'4 7.1
2017-Nov-04 07:31N 37°41' W 122°40'4 7.9
2017-Nov-04 07:01N 37°37' W 122°40'4 7.6
2017-Nov-04 06:30N 37°33' W 122°40'4 8.1
2017-Nov-04 06:00N 37°29' W 122°40'4 8.1
2017-Nov-04 05:31N 37°25' W 122°40'4 7.8
2017-Nov-04 05:01N 37°21' W 122°40'4 7.8
2017-Nov-04 04:31N 37°17' W 122°40'4 7.9
2017-Nov-04 04:01N 37°13' W 122°40'4 7.4
2017-Nov-04 03:30N 37°09' W 122°39'4 8.1
2017-Nov-04 03:01N 37°06' W 122°37'5 9.4
2017-Nov-04 02:31N 37°01' W 122°35'5 9.2
2017-Nov-04 02:00N 36°57' W 122°33'4513.1
2017-Nov-03 22:33N 36°15' W 122°11'117.9
2017-Nov-03 22:30N 36°15' W 122°10'918.0
2017-Nov-03 22:00N 36°07' W 122°05'2917.9
2017-Nov-03 20:24N 35°42' W 121°47'717.9
2017-Nov-03 20:00N 35°36' W 121°42'1218.0
2017-Nov-03 19:20N 35°26' W 121°34'618.3
2017-Nov-03 19:00N 35°21' W 121°31'918.1
2017-Nov-03 18:30N 35°13' W 121°25'918.7
2017-Nov-03 18:00N 35°05' W 121°19'918.0
2017-Nov-03 17:30N 34°57' W 121°14'917.9
2017-Nov-03 17:00N 34°49' W 121°08'918.0
2017-Nov-03 16:30N 34°42' W 121°03'917.8
2017-Nov-03 16:00N 34°34' W 120°57'917.6
2017-Nov-03 15:30N 34°26' W 120°52'918.4
2017-Nov-03 15:00N 34°24' W 120°41'917.5
2017-Nov-03 14:29N 34°21' W 120°30'511.0
2017-Nov-03 14:00N 34°20' W 120°24'5 9.3
2017-Nov-03 13:30N 34°19' W 120°19'5 9.2
2017-Nov-03 13:00N 34°18' W 120°13'5 9.2
2017-Nov-03 12:28N 34°16' W 120°08'4 9.1
2017-Nov-03 12:00N 34°15' W 120°03'5 9.1
2017-Nov-03 11:28N 34°14' W 119°57'4 9.5
2017-Nov-03 11:00N 34°13' W 119°52'5 9.2
2017-Nov-03 10:27N 34°11' W 119°46'510.0
2017-Nov-03 09:59N 34°10' W 119°40'4 9.3
2017-Nov-03 09:30N 34°09' W 119°35'5 9.2
2017-Nov-03 08:57N 34°07' W 119°29'4 8.9
2017-Nov-03 08:28N 34°06' W 119°24'4 8.7
2017-Nov-03 08:00N 34°05' W 119°20'5 9.0
2017-Nov-03 07:28N 34°04' W 119°14'4 9.1
2017-Nov-03 07:00N 34°02' W 119°09'5 8.9
2017-Nov-03 06:28N 33°60' W 119°05'4 8.7
2017-Nov-03 06:00N 33°57' W 119°00'5 9.2
2017-Nov-03 05:30N 33°55' W 118°56'4 8.7
2017-Nov-03 05:00N 33°53' W 118°51'510.0
2017-Nov-03 04:30N 33°50' W 118°46'611.5
2017-Nov-03 04:00N 33°48' W 118°40'611.7
2017-Nov-03 03:30N 33°44' W 118°34'611.7
2017-Nov-03 03:01N 33°42' W 118°28'611.5
2017-Nov-03 02:29N 33°39' W 118°21'811.2
2017-Nov-03 01:47N 33°39' W 118°12'6 0.5
2017-Nov-02 12:41N 33°45' W 118°13'6 7.4
2017-Nov-02 11:51N 33°39' W 118°10'22 6.4
2017-Nov-02 08:29N 33°18' W 118°02'4 7.3
2017-Nov-02 08:00N 33°15' W 118°01'4 7.1
2017-Nov-02 07:31N 33°12' W 117°60'4 7.2
2017-Nov-02 07:00N 33°08' W 117°58'4 7.3
2017-Nov-02 06:31N 33°05' W 117°57'4 7.3
2017-Nov-02 06:01N 33°01' W 117°56'4 7.3
2017-Nov-02 05:30N 32°58' W 117°55'4 7.2
2017-Nov-02 05:00N 32°54' W 117°54'4 7.3
2017-Nov-02 04:30N 32°51' W 117°52'4 7.4
2017-Nov-02 04:01N 32°47' W 117°51'4 7.3
2017-Nov-02 03:31N 32°44' W 117°50'4 7.7
2017-Nov-02 03:01N 32°40' W 117°48'4 8.0
2017-Nov-02 02:30N 32°36' W 117°47'4 7.9
2017-Nov-02 01:57N 32°32' W 117°45'4 7.8
2017-Nov-02 01:30N 32°29' W 117°44'4 7.7
2017-Nov-02 01:00N 32°25' W 117°42'4 8.7
2017-Nov-02 00:30N 32°21' W 117°40'  

Dump ship's entire track history